sensor_id;sensor_type;location;lat;lon;timestamp;P1;durP1;ratioP1;P2;durP2;ratioP2
53267;SDS011;39156;51.176;6.738;2023-05-07T00:00:39;34.83;;;32.93;;
53267;SDS011;39156;51.176;6.738;2023-05-07T00:03:05;35.17;;;32.88;;
53267;SDS011;39156;51.176;6.738;2023-05-07T00:05:31;35.10;;;32.88;;
53267;SDS011;39156;51.176;6.738;2023-05-07T00:07:57;35.70;;;33.77;;
53267;SDS011;39156;51.176;6.738;2023-05-07T00:10:23;33.50;;;31.50;;
53267;SDS011;39156;51.176;6.738;2023-05-07T00:12:48;33.70;;;31.80;;
53267;SDS011;39156;51.176;6.738;2023-05-07T00:15:14;33.70;;;31.90;;
53267;SDS011;39156;51.176;6.738;2023-05-07T00:17:40;36.40;;;34.30;;
53267;SDS011;39156;51.176;6.738;2023-05-07T00:20:06;34.23;;;32.33;;
53267;SDS011;39156;51.176;6.738;2023-05-07T00:24:58;35.50;;;33.30;;
53267;SDS011;39156;51.176;6.738;2023-05-07T00:27:24;35.50;;;33.60;;
53267;SDS011;39156;51.176;6.738;2023-05-07T00:29:50;35.10;;;33.20;;
53267;SDS011;39156;51.176;6.738;2023-05-07T00:32:16;35.07;;;33.23;;
53267;SDS011;39156;51.176;6.738;2023-05-07T00:34:42;33.20;;;31.40;;
53267;SDS011;39156;51.176;6.738;2023-05-07T00:37:08;35.53;;;33.47;;
53267;SDS011;39156;51.176;6.738;2023-05-07T00:39:34;35.60;;;33.70;;
53267;SDS011;39156;51.176;6.738;2023-05-07T00:42:01;36.45;;;34.45;;
53267;SDS011;39156;51.176;6.738;2023-05-07T00:46:53;35.08;;;33.28;;
53267;SDS011;39156;51.176;6.738;2023-05-07T00:49:19;35.30;;;33.30;;
53267;SDS011;39156;51.176;6.738;2023-05-07T00:51:45;32.47;;;30.73;;
53267;SDS011;39156;51.176;6.738;2023-05-07T00:54:11;32.45;;;30.65;;
53267;SDS011;39156;51.176;6.738;2023-05-07T00:56:38;35.67;;;33.78;;
53267;SDS011;39156;51.176;6.738;2023-05-07T00:59:04;34.80;;;32.80;;
53267;SDS011;39156;51.176;6.738;2023-05-07T01:01:31;34.78;;;32.88;;
53267;SDS011;39156;51.176;6.738;2023-05-07T01:03:57;35.37;;;33.47;;
53267;SDS011;39156;51.176;6.738;2023-05-07T01:06:23;34.93;;;32.73;;
53267;SDS011;39156;51.176;6.738;2023-05-07T01:08:52;33.53;;;31.73;;
53267;SDS011;39156;51.176;6.738;2023-05-07T01:11:21;33.70;;;31.80;;
53267;SDS011;39156;51.176;6.738;2023-05-07T01:13:48;34.05;;;32.17;;
53267;SDS011;39156;51.176;6.738;2023-05-07T01:16:15;34.75;;;32.85;;
53267;SDS011;39156;51.176;6.738;2023-05-07T01:18:41;33.70;;;31.90;;
53267;SDS011;39156;51.176;6.738;2023-05-07T01:21:07;35.77;;;33.77;;
53267;SDS011;39156;51.176;6.738;2023-05-07T01:23:36;33.85;;;32.05;;
53267;SDS011;39156;51.176;6.738;2023-05-07T01:26:03;33.70;;;31.92;;
53267;SDS011;39156;51.176;6.738;2023-05-07T01:28:29;35.50;;;33.30;;
53267;SDS011;39156;51.176;6.738;2023-05-07T01:30:56;36.70;;;34.70;;
53267;SDS011;39156;51.176;6.738;2023-05-07T01:33:29;35.58;;;33.67;;
53267;SDS011;39156;51.176;6.738;2023-05-07T01:35:58;34.65;;;32.75;;
53267;SDS011;39156;51.176;6.738;2023-05-07T01:38:27;38.08;;;35.97;;
53267;SDS011;39156;51.176;6.738;2023-05-07T01:40:53;35.38;;;33.42;;
53267;SDS011;39156;51.176;6.738;2023-05-07T01:43:19;34.40;;;32.50;;
53267;SDS011;39156;51.176;6.738;2023-05-07T01:45:45;34.53;;;32.70;;
53267;SDS011;39156;51.176;6.738;2023-05-07T01:48:14;36.13;;;34.03;;
53267;SDS011;39156;51.176;6.738;2023-05-07T01:50:40;35.08;;;33.17;;
53267;SDS011;39156;51.176;6.738;2023-05-07T01:53:08;35.25;;;33.35;;
53267;SDS011;39156;51.176;6.738;2023-05-07T01:55:33;32.80;;;30.90;;
53267;SDS011;39156;51.176;6.738;2023-05-07T01:58:01;36.83;;;34.72;;
53267;SDS011;39156;51.176;6.738;2023-05-07T02:00:27;34.92;;;33.03;;
53267;SDS011;39156;51.176;6.738;2023-05-07T02:02:53;33.33;;;31.63;;
53267;SDS011;39156;51.176;6.738;2023-05-07T02:05:19;36.47;;;34.37;;
53267;SDS011;39156;51.176;6.738;2023-05-07T02:07:45;34.87;;;33.00;;
53267;SDS011;39156;51.176;6.738;2023-05-07T02:10:11;36.20;;;34.17;;
53267;SDS011;39156;51.176;6.738;2023-05-07T02:12:36;34.90;;;32.87;;
53267;SDS011;39156;51.176;6.738;2023-05-07T02:15:02;35.50;;;32.60;;
53267;SDS011;39156;51.176;6.738;2023-05-07T02:17:28;34.05;;;31.95;;
53267;SDS011;39156;51.176;6.738;2023-05-07T02:19:56;33.97;;;32.17;;
53267;SDS011;39156;51.176;6.738;2023-05-07T02:22:22;35.10;;;33.20;;
53267;SDS011;39156;51.176;6.738;2023-05-07T02:24:48;32.43;;;30.73;;
53267;SDS011;39156;51.176;6.738;2023-05-07T02:27:14;33.83;;;32.03;;
53267;SDS011;39156;51.176;6.738;2023-05-07T02:29:39;35.88;;;33.88;;
53267;SDS011;39156;51.176;6.738;2023-05-07T02:32:05;34.33;;;32.53;;
53267;SDS011;39156;51.176;6.738;2023-05-07T02:34:31;33.57;;;31.70;;
53267;SDS011;39156;51.176;6.738;2023-05-07T02:36:56;34.77;;;32.97;;
53267;SDS011;39156;51.176;6.738;2023-05-07T02:39:22;36.53;;;34.23;;
53267;SDS011;39156;51.176;6.738;2023-05-07T02:41:48;35.30;;;33.30;;
53267;SDS011;39156;51.176;6.738;2023-05-07T02:44:13;34.47;;;32.57;;
53267;SDS011;39156;51.176;6.738;2023-05-07T02:46:39;35.57;;;33.67;;
53267;SDS011;39156;51.176;6.738;2023-05-07T02:49:05;34.10;;;32.10;;
53267;SDS011;39156;51.176;6.738;2023-05-07T02:51:31;34.70;;;32.87;;
53267;SDS011;39156;51.176;6.738;2023-05-07T02:53:56;33.37;;;31.57;;
53267;SDS011;39156;51.176;6.738;2023-05-07T02:56:22;35.47;;;33.38;;
53267;SDS011;39156;51.176;6.738;2023-05-07T02:58:48;35.40;;;33.45;;
53267;SDS011;39156;51.176;6.738;2023-05-07T03:01:13;35.67;;;33.80;;
53267;SDS011;39156;51.176;6.738;2023-05-07T03:03:39;33.60;;;31.60;;
53267;SDS011;39156;51.176;6.738;2023-05-07T03:06:05;34.40;;;32.60;;
53267;SDS011;39156;51.176;6.738;2023-05-07T03:08:31;37.15;;;34.95;;
53267;SDS011;39156;51.176;6.738;2023-05-07T03:10:57;34.92;;;32.92;;
53267;SDS011;39156;51.176;6.738;2023-05-07T03:13:23;32.97;;;31.27;;
53267;SDS011;39156;51.176;6.738;2023-05-07T03:15:49;34.87;;;32.67;;
53267;SDS011;39156;51.176;6.738;2023-05-07T03:18:15;34.25;;;32.45;;
53267;SDS011;39156;51.176;6.738;2023-05-07T03:20:40;33.67;;;31.67;;
53267;SDS011;39156;51.176;6.738;2023-05-07T03:23:06;35.33;;;33.40;;
53267;SDS011;39156;51.176;6.738;2023-05-07T03:25:32;34.73;;;32.83;;
53267;SDS011;39156;51.176;6.738;2023-05-07T03:27:57;35.87;;;33.97;;
53267;SDS011;39156;51.176;6.738;2023-05-07T03:30:23;32.90;;;31.20;;
53267;SDS011;39156;51.176;6.738;2023-05-07T03:32:49;35.20;;;32.95;;
53267;SDS011;39156;51.176;6.738;2023-05-07T03:35:15;33.15;;;31.35;;
53267;SDS011;39156;51.176;6.738;2023-05-07T03:37:40;33.35;;;31.58;;
53267;SDS011;39156;51.176;6.738;2023-05-07T03:40:06;34.73;;;32.83;;
53267;SDS011;39156;51.176;6.738;2023-05-07T03:42:34;33.70;;;31.80;;
53267;SDS011;39156;51.176;6.738;2023-05-07T03:44:59;33.97;;;32.13;;
53267;SDS011;39156;51.176;6.738;2023-05-07T03:47:25;34.20;;;32.37;;
53267;SDS011;39156;51.176;6.738;2023-05-07T03:49:51;33.97;;;32.00;;
53267;SDS011;39156;51.176;6.738;2023-05-07T03:52:18;33.97;;;32.17;;
53267;SDS011;39156;51.176;6.738;2023-05-07T03:54:48;33.50;;;31.77;;
53267;SDS011;39156;51.176;6.738;2023-05-07T03:57:14;34.03;;;31.87;;
53267;SDS011;39156;51.176;6.738;2023-05-07T03:59:40;35.50;;;33.70;;
53267;SDS011;39156;51.176;6.738;2023-05-07T04:02:05;33.83;;;31.90;;
53267;SDS011;39156;51.176;6.738;2023-05-07T04:04:31;34.00;;;32.20;;
53267;SDS011;39156;51.176;6.738;2023-05-07T04:06:57;33.10;;;31.20;;
53267;SDS011;39156;51.176;6.738;2023-05-07T04:09:24;32.97;;;31.27;;
53267;SDS011;39156;51.176;6.738;2023-05-07T04:11:50;34.80;;;32.90;;
53267;SDS011;39156;51.176;6.738;2023-05-07T04:14:15;33.73;;;31.93;;
53267;SDS011;39156;51.176;6.738;2023-05-07T04:16:41;34.63;;;32.73;;
53267;SDS011;39156;51.176;6.738;2023-05-07T04:19:07;32.77;;;30.93;;
53267;SDS011;39156;51.176;6.738;2023-05-07T04:21:32;33.20;;;31.40;;
53267;SDS011;39156;51.176;6.738;2023-05-07T04:23:58;34.70;;;32.80;;
53267;SDS011;39156;51.176;6.738;2023-05-07T04:26:24;35.70;;;33.70;;
53267;SDS011;39156;51.176;6.738;2023-05-07T04:28:50;35.20;;;33.30;;
53267;SDS011;39156;51.176;6.738;2023-05-07T04:31:15;34.93;;;33.00;;
53267;SDS011;39156;51.176;6.738;2023-05-07T04:33:41;33.43;;;31.60;;
53267;SDS011;39156;51.176;6.738;2023-05-07T04:36:07;32.93;;;31.20;;
53267;SDS011;39156;51.176;6.738;2023-05-07T04:38:33;32.70;;;30.80;;
53267;SDS011;39156;51.176;6.738;2023-05-07T04:41:05;36.13;;;33.83;;
53267;SDS011;39156;51.176;6.738;2023-05-07T04:43:32;34.88;;;33.03;;
53267;SDS011;39156;51.176;6.738;2023-05-07T04:45:57;34.15;;;32.35;;
53267;SDS011;39156;51.176;6.738;2023-05-07T04:48:23;34.33;;;32.33;;
53267;SDS011;39156;51.176;6.738;2023-05-07T04:50:50;33.13;;;31.30;;
53267;SDS011;39156;51.176;6.738;2023-05-07T04:53:16;34.28;;;32.40;;
53267;SDS011;39156;51.176;6.738;2023-05-07T04:55:42;33.80;;;31.80;;
53267;SDS011;39156;51.176;6.738;2023-05-07T04:58:09;36.20;;;34.10;;
53267;SDS011;39156;51.176;6.738;2023-05-07T05:00:36;33.42;;;31.63;;
53267;SDS011;39156;51.176;6.738;2023-05-07T05:03:01;34.50;;;32.50;;
53267;SDS011;39156;51.176;6.738;2023-05-07T05:05:27;36.43;;;34.43;;
53267;SDS011;39156;51.176;6.738;2023-05-07T05:07:53;34.13;;;32.23;;
53267;SDS011;39156;51.176;6.738;2023-05-07T05:10:18;35.00;;;33.20;;
53267;SDS011;39156;51.176;6.738;2023-05-07T05:12:44;33.63;;;31.87;;
53267;SDS011;39156;51.176;6.738;2023-05-07T05:15:11;34.67;;;32.77;;
53267;SDS011;39156;51.176;6.738;2023-05-07T05:17:37;33.30;;;31.35;;
53267;SDS011;39156;51.176;6.738;2023-05-07T05:20:03;34.37;;;32.47;;
53267;SDS011;39156;51.176;6.738;2023-05-07T05:22:30;32.88;;;31.08;;
53267;SDS011;39156;51.176;6.738;2023-05-07T05:24:57;33.03;;;31.13;;
53267;SDS011;39156;51.176;6.738;2023-05-07T05:27:23;32.70;;;30.80;;
53267;SDS011;39156;51.176;6.738;2023-05-07T05:29:49;33.93;;;32.13;;
53267;SDS011;39156;51.176;6.738;2023-05-07T05:32:14;36.27;;;34.00;;
53267;SDS011;39156;51.176;6.738;2023-05-07T05:34:40;34.27;;;31.73;;
53267;SDS011;39156;51.176;6.738;2023-05-07T05:37:06;32.83;;;31.13;;
53267;SDS011;39156;51.176;6.738;2023-05-07T05:39:31;34.70;;;32.50;;
53267;SDS011;39156;51.176;6.738;2023-05-07T05:41:57;34.37;;;32.60;;
53267;SDS011;39156;51.176;6.738;2023-05-07T05:44:23;33.70;;;32.00;;
53267;SDS011;39156;51.176;6.738;2023-05-07T05:46:48;33.30;;;31.50;;
53267;SDS011;39156;51.176;6.738;2023-05-07T05:49:14;32.63;;;30.73;;
53267;SDS011;39156;51.176;6.738;2023-05-07T05:51:40;33.87;;;32.07;;
53267;SDS011;39156;51.176;6.738;2023-05-07T05:54:06;36.40;;;34.60;;
53267;SDS011;39156;51.176;6.738;2023-05-07T05:56:32;32.33;;;30.73;;
53267;SDS011;39156;51.176;6.738;2023-05-07T05:58:58;32.50;;;30.80;;
53267;SDS011;39156;51.176;6.738;2023-05-07T06:01:23;32.10;;;30.40;;
53267;SDS011;39156;51.176;6.738;2023-05-07T06:03:49;36.33;;;34.33;;
53267;SDS011;39156;51.176;6.738;2023-05-07T06:06:17;34.25;;;32.35;;
53267;SDS011;39156;51.176;6.738;2023-05-07T06:08:43;32.03;;;30.23;;
53267;SDS011;39156;51.176;6.738;2023-05-07T06:11:08;33.33;;;31.43;;
53267;SDS011;39156;51.176;6.738;2023-05-07T06:13:34;33.93;;;32.03;;
53267;SDS011;39156;51.176;6.738;2023-05-07T06:16:00;33.70;;;32.00;;
53267;SDS011;39156;51.176;6.738;2023-05-07T06:18:25;33.93;;;32.17;;
53267;SDS011;39156;51.176;6.738;2023-05-07T06:20:51;33.27;;;31.53;;
53267;SDS011;39156;51.176;6.738;2023-05-07T06:23:17;34.25;;;32.47;;
53267;SDS011;39156;51.176;6.738;2023-05-07T06:25:49;35.37;;;33.47;;
53267;SDS011;39156;51.176;6.738;2023-05-07T06:28:15;32.30;;;30.60;;
53267;SDS011;39156;51.176;6.738;2023-05-07T06:30:41;32.67;;;30.98;;
53267;SDS011;39156;51.176;6.738;2023-05-07T06:33:07;32.60;;;30.80;;
53267;SDS011;39156;51.176;6.738;2023-05-07T06:35:33;33.67;;;31.77;;
53267;SDS011;39156;51.176;6.738;2023-05-07T06:37:59;32.77;;;31.00;;
53267;SDS011;39156;51.176;6.738;2023-05-07T06:40:25;32.72;;;30.92;;
53267;SDS011;39156;51.176;6.738;2023-05-07T06:42:51;33.58;;;31.77;;
53267;SDS011;39156;51.176;6.738;2023-05-07T06:45:17;32.80;;;31.00;;
53267;SDS011;39156;51.176;6.738;2023-05-07T06:47:44;31.60;;;29.90;;
53267;SDS011;39156;51.176;6.738;2023-05-07T06:50:10;32.60;;;30.90;;
53267;SDS011;39156;51.176;6.738;2023-05-07T06:52:36;31.63;;;29.93;;
53267;SDS011;39156;51.176;6.738;2023-05-07T06:55:01;30.57;;;28.70;;
53267;SDS011;39156;51.176;6.738;2023-05-07T06:57:27;30.85;;;29.25;;
53267;SDS011;39156;51.176;6.738;2023-05-07T06:59:53;31.77;;;29.90;;
53267;SDS011;39156;51.176;6.738;2023-05-07T07:02:19;30.97;;;29.20;;
53267;SDS011;39156;51.176;6.738;2023-05-07T07:04:44;31.50;;;29.80;;
53267;SDS011;39156;51.176;6.738;2023-05-07T07:07:10;29.67;;;28.10;;
53267;SDS011;39156;51.176;6.738;2023-05-07T07:09:36;30.08;;;28.50;;
53267;SDS011;39156;51.176;6.738;2023-05-07T07:12:01;30.20;;;28.33;;
53267;SDS011;39156;51.176;6.738;2023-05-07T07:14:27;30.58;;;28.98;;
53267;SDS011;39156;51.176;6.738;2023-05-07T07:16:53;29.55;;;27.95;;
53267;SDS011;39156;51.176;6.738;2023-05-07T07:19:19;30.38;;;28.80;;
53267;SDS011;39156;51.176;6.738;2023-05-07T07:21:45;30.90;;;29.20;;
53267;SDS011;39156;51.176;6.738;2023-05-07T07:24:11;29.23;;;27.63;;
53267;SDS011;39156;51.176;6.738;2023-05-07T07:26:38;28.77;;;27.23;;
53267;SDS011;39156;51.176;6.738;2023-05-07T07:29:04;30.75;;;29.15;;
53267;SDS011;39156;51.176;6.738;2023-05-07T07:31:31;28.88;;;27.17;;
53267;SDS011;39156;51.176;6.738;2023-05-07T07:33:57;28.60;;;27.00;;
53267;SDS011;39156;51.176;6.738;2023-05-07T07:36:23;29.92;;;28.30;;
53267;SDS011;39156;51.176;6.738;2023-05-07T07:38:48;30.65;;;28.92;;
53267;SDS011;39156;51.176;6.738;2023-05-07T07:41:14;30.45;;;28.70;;
53267;SDS011;39156;51.176;6.738;2023-05-07T07:43:40;30.00;;;28.40;;
53267;SDS011;39156;51.176;6.738;2023-05-07T07:46:05;31.00;;;29.40;;
53267;SDS011;39156;51.176;6.738;2023-05-07T07:48:31;31.27;;;29.48;;
53267;SDS011;39156;51.176;6.738;2023-05-07T07:50:57;31.40;;;29.60;;
53267;SDS011;39156;51.176;6.738;2023-05-07T07:53:22;30.08;;;28.48;;
53267;SDS011;39156;51.176;6.738;2023-05-07T07:55:48;30.80;;;29.20;;
53267;SDS011;39156;51.176;6.738;2023-05-07T07:58:14;29.90;;;27.98;;
53267;SDS011;39156;51.176;6.738;2023-05-07T08:00:39;29.30;;;27.70;;
53267;SDS011;39156;51.176;6.738;2023-05-07T08:03:05;29.48;;;27.83;;
53267;SDS011;39156;51.176;6.738;2023-05-07T08:05:34;29.92;;;27.95;;
53267;SDS011;39156;51.176;6.738;2023-05-07T08:08:00;31.33;;;29.15;;
53267;SDS011;39156;51.176;6.738;2023-05-07T08:10:26;28.50;;;26.90;;
53267;SDS011;39156;51.176;6.738;2023-05-07T08:12:52;28.67;;;27.15;;
53267;SDS011;39156;51.176;6.738;2023-05-07T08:15:17;28.10;;;26.60;;
53267;SDS011;39156;51.176;6.738;2023-05-07T08:17:43;28.70;;;27.10;;
53267;SDS011;39156;51.176;6.738;2023-05-07T08:20:09;29.00;;;27.33;;
53267;SDS011;39156;51.176;6.738;2023-05-07T08:25:01;28.85;;;27.30;;
53267;SDS011;39156;51.176;6.738;2023-05-07T08:29:53;28.70;;;27.20;;
53267;SDS011;39156;51.176;6.738;2023-05-07T08:32:19;28.88;;;27.27;;
53267;SDS011;39156;51.176;6.738;2023-05-07T08:34:45;30.38;;;28.67;;
53267;SDS011;39156;51.176;6.738;2023-05-07T08:37:12;28.92;;;27.33;;
53267;SDS011;39156;51.176;6.738;2023-05-07T08:39:38;28.88;;;27.27;;
53267;SDS011;39156;51.176;6.738;2023-05-07T08:42:04;29.67;;;28.08;;
53267;SDS011;39156;51.176;6.738;2023-05-07T08:44:32;28.80;;;26.98;;
53267;SDS011;39156;51.176;6.738;2023-05-07T08:47:00;29.50;;;28.00;;
53267;SDS011;39156;51.176;6.738;2023-05-07T08:49:27;29.45;;;27.80;;
53267;SDS011;39156;51.176;6.738;2023-05-07T08:54:20;28.55;;;27.05;;
53267;SDS011;39156;51.176;6.738;2023-05-07T08:56:46;29.13;;;27.63;;
53267;SDS011;39156;51.176;6.738;2023-05-07T08:59:12;28.67;;;27.17;;
53267;SDS011;39156;51.176;6.738;2023-05-07T09:01:38;30.13;;;28.42;;
53267;SDS011;39156;51.176;6.738;2023-05-07T09:04:04;29.73;;;28.13;;
53267;SDS011;39156;51.176;6.738;2023-05-07T09:06:31;30.33;;;28.73;;
53267;SDS011;39156;51.176;6.738;2023-05-07T09:08:58;29.92;;;28.33;;
53267;SDS011;39156;51.176;6.738;2023-05-07T09:11:26;29.25;;;27.75;;
53267;SDS011;39156;51.176;6.738;2023-05-07T09:13:55;30.02;;;28.42;;
53267;SDS011;39156;51.176;6.738;2023-05-07T09:16:23;29.95;;;28.25;;
53267;SDS011;39156;51.176;6.738;2023-05-07T09:18:53;30.48;;;28.77;;
53267;SDS011;39156;51.176;6.738;2023-05-07T09:21:20;30.50;;;28.83;;
53267;SDS011;39156;51.176;6.738;2023-05-07T09:23:48;30.98;;;29.17;;
53267;SDS011;39156;51.176;6.738;2023-05-07T09:26:20;31.42;;;29.17;;
53267;SDS011;39156;51.176;6.738;2023-05-07T09:28:47;30.83;;;29.23;;
53267;SDS011;39156;51.176;6.738;2023-05-07T09:31:13;30.38;;;28.52;;
53267;SDS011;39156;51.176;6.738;2023-05-07T09:33:39;29.98;;;28.38;;
53267;SDS011;39156;51.176;6.738;2023-05-07T09:38:32;30.60;;;29.02;;
53267;SDS011;39156;51.176;6.738;2023-05-07T09:41:09;29.27;;;27.58;;
53267;SDS011;39156;51.176;6.738;2023-05-07T09:43:37;28.85;;;27.25;;
53267;SDS011;39156;51.176;6.738;2023-05-07T09:46:10;29.98;;;28.23;;
53267;SDS011;39156;51.176;6.738;2023-05-07T09:48:39;28.30;;;26.80;;
53267;SDS011;39156;51.176;6.738;2023-05-07T09:54:01;28.38;;;26.88;;
53267;SDS011;39156;51.176;6.738;2023-05-07T09:56:29;28.17;;;26.60;;
53267;SDS011;39156;51.176;6.738;2023-05-07T09:58:56;28.20;;;26.60;;
53267;SDS011;39156;51.176;6.738;2023-05-07T10:01:25;28.30;;;26.70;;
53267;SDS011;39156;51.176;6.738;2023-05-07T10:03:52;28.88;;;27.27;;
53267;SDS011;39156;51.176;6.738;2023-05-07T10:06:19;28.98;;;27.02;;
53267;SDS011;39156;51.176;6.738;2023-05-07T10:08:45;28.52;;;27.02;;
53267;SDS011;39156;51.176;6.738;2023-05-07T10:11:12;29.75;;;28.23;;
53267;SDS011;39156;51.176;6.738;2023-05-07T10:13:40;29.45;;;27.83;;
53267;SDS011;39156;51.176;6.738;2023-05-07T10:16:07;28.60;;;27.10;;
53267;SDS011;39156;51.176;6.738;2023-05-07T10:18:33;28.38;;;26.88;;
53267;SDS011;39156;51.176;6.738;2023-05-07T10:21:18;28.38;;;26.92;;
53267;SDS011;39156;51.176;6.738;2023-05-07T10:26:49;28.60;;;27.15;;
53267;SDS011;39156;51.176;6.738;2023-05-07T10:31:57;27.92;;;26.45;;
53267;SDS011;39156;51.176;6.738;2023-05-07T10:34:35;28.40;;;26.90;;
53267;SDS011;39156;51.176;6.738;2023-05-07T10:37:04;28.85;;;27.25;;
53267;SDS011;39156;51.176;6.738;2023-05-07T10:39:31;28.67;;;27.17;;
53267;SDS011;39156;51.176;6.738;2023-05-07T10:42:03;27.55;;;26.05;;
53267;SDS011;39156;51.176;6.738;2023-05-07T10:44:36;28.23;;;26.73;;
53267;SDS011;39156;51.176;6.738;2023-05-07T10:47:15;28.48;;;26.48;;
53267;SDS011;39156;51.176;6.738;2023-05-07T10:52:10;27.85;;;26.45;;
53267;SDS011;39156;51.176;6.738;2023-05-07T10:54:39;28.70;;;27.15;;
53267;SDS011;39156;51.176;6.738;2023-05-07T11:00:01;27.90;;;26.40;;
53267;SDS011;39156;51.176;6.738;2023-05-07T11:05:29;28.70;;;27.20;;
53267;SDS011;39156;51.176;6.738;2023-05-07T11:07:57;29.13;;;27.40;;
53267;SDS011;39156;51.176;6.738;2023-05-07T11:16:24;28.58;;;27.08;;
53267;SDS011;39156;51.176;6.738;2023-05-07T11:18:53;29.58;;;27.98;;
53267;SDS011;39156;51.176;6.738;2023-05-07T11:21:33;28.83;;;27.17;;
53267;SDS011;39156;51.176;6.738;2023-05-07T11:24:08;28.98;;;27.45;;
53267;SDS011;39156;51.176;6.738;2023-05-07T11:29:30;28.50;;;27.10;;
53267;SDS011;39156;51.176;6.738;2023-05-07T11:31:56;28.35;;;26.85;;
53267;SDS011;39156;51.176;6.738;2023-05-07T11:34:23;28.33;;;26.83;;
53267;SDS011;39156;51.176;6.738;2023-05-07T11:36:51;29.90;;;28.30;;
53267;SDS011;39156;51.176;6.738;2023-05-07T11:39:30;28.38;;;26.88;;
53267;SDS011;39156;51.176;6.738;2023-05-07T11:41:58;28.45;;;26.95;;
53267;SDS011;39156;51.176;6.738;2023-05-07T11:44:25;28.45;;;26.95;;
53267;SDS011;39156;51.176;6.738;2023-05-07T11:47:05;28.75;;;27.25;;
53267;SDS011;39156;51.176;6.738;2023-05-07T11:49:31;28.63;;;27.02;;
53267;SDS011;39156;51.176;6.738;2023-05-07T11:51:57;30.15;;;28.55;;
53267;SDS011;39156;51.176;6.738;2023-05-07T11:54:22;29.15;;;27.55;;
53267;SDS011;39156;51.176;6.738;2023-05-07T11:56:48;28.63;;;27.10;;
53267;SDS011;39156;51.176;6.738;2023-05-07T11:59:17;29.38;;;27.83;;
53267;SDS011;39156;51.176;6.738;2023-05-07T12:01:45;29.90;;;28.25;;
53267;SDS011;39156;51.176;6.738;2023-05-07T12:04:12;28.15;;;26.75;;
53267;SDS011;39156;51.176;6.738;2023-05-07T12:06:37;29.08;;;27.58;;
53267;SDS011;39156;51.176;6.738;2023-05-07T12:09:03;29.00;;;27.40;;
53267;SDS011;39156;51.176;6.738;2023-05-07T12:11:32;28.85;;;27.35;;
53267;SDS011;39156;51.176;6.738;2023-05-07T12:13:57;29.73;;;28.02;;
53267;SDS011;39156;51.176;6.738;2023-05-07T12:16:23;29.23;;;27.73;;
53267;SDS011;39156;51.176;6.738;2023-05-07T12:18:50;30.23;;;28.63;;
53267;SDS011;39156;51.176;6.738;2023-05-07T12:21:17;29.15;;;27.58;;
53267;SDS011;39156;51.176;6.738;2023-05-07T12:23:43;30.48;;;28.00;;
53267;SDS011;39156;51.176;6.738;2023-05-07T12:26:10;28.35;;;26.65;;
53267;SDS011;39156;51.176;6.738;2023-05-07T12:28:36;28.80;;;27.10;;
53267;SDS011;39156;51.176;6.738;2023-05-07T12:31:06;28.30;;;26.85;;
53267;SDS011;39156;51.176;6.738;2023-05-07T12:33:32;28.65;;;27.08;;
53267;SDS011;39156;51.176;6.738;2023-05-07T12:36:02;29.05;;;27.45;;
53267;SDS011;39156;51.176;6.738;2023-05-07T12:38:35;29.42;;;27.92;;
53267;SDS011;39156;51.176;6.738;2023-05-07T12:41:02;28.52;;;26.83;;
53267;SDS011;39156;51.176;6.738;2023-05-07T12:43:29;30.73;;;27.92;;
53267;SDS011;39156;51.176;6.738;2023-05-07T12:45:55;29.30;;;27.80;;
53267;SDS011;39156;51.176;6.738;2023-05-07T12:48:24;28.90;;;27.40;;
53267;SDS011;39156;51.176;6.738;2023-05-07T12:50:53;28.42;;;26.92;;
53267;SDS011;39156;51.176;6.738;2023-05-07T12:53:20;29.35;;;27.75;;
53267;SDS011;39156;51.176;6.738;2023-05-07T12:55:48;29.00;;;27.50;;
53267;SDS011;39156;51.176;6.738;2023-05-07T13:00:42;30.23;;;28.73;;
53267;SDS011;39156;51.176;6.738;2023-05-07T13:03:08;30.95;;;29.25;;
53267;SDS011;39156;51.176;6.738;2023-05-07T13:05:34;29.63;;;28.13;;
53267;SDS011;39156;51.176;6.738;2023-05-07T13:08:00;30.50;;;28.75;;
53267;SDS011;39156;51.176;6.738;2023-05-07T13:10:26;29.95;;;28.33;;
53267;SDS011;39156;51.176;6.738;2023-05-07T13:12:53;29.45;;;27.85;;
53267;SDS011;39156;51.176;6.738;2023-05-07T13:15:19;30.25;;;28.65;;
53267;SDS011;39156;51.176;6.738;2023-05-07T13:17:45;31.42;;;29.83;;
53267;SDS011;39156;51.176;6.738;2023-05-07T13:20:11;29.63;;;28.00;;
53267;SDS011;39156;51.176;6.738;2023-05-07T13:22:40;30.40;;;28.90;;
53267;SDS011;39156;51.176;6.738;2023-05-07T13:25:06;29.38;;;27.77;;
53267;SDS011;39156;51.176;6.738;2023-05-07T13:27:32;30.05;;;28.25;;
53267;SDS011;39156;51.176;6.738;2023-05-07T13:30:02;30.58;;;28.98;;
53267;SDS011;39156;51.176;6.738;2023-05-07T13:32:34;29.35;;;27.77;;
53267;SDS011;39156;51.176;6.738;2023-05-07T13:35:00;31.05;;;29.45;;
53267;SDS011;39156;51.176;6.738;2023-05-07T13:37:29;29.80;;;28.20;;
53267;SDS011;39156;51.176;6.738;2023-05-07T13:39:55;30.67;;;29.08;;
53267;SDS011;39156;51.176;6.738;2023-05-07T13:42:20;32.10;;;30.40;;
53267;SDS011;39156;51.176;6.738;2023-05-07T13:44:46;32.05;;;30.23;;
53267;SDS011;39156;51.176;6.738;2023-05-07T13:47:12;30.42;;;28.83;;
53267;SDS011;39156;51.176;6.738;2023-05-07T13:49:38;31.05;;;29.35;;
53267;SDS011;39156;51.176;6.738;2023-05-07T13:52:03;30.20;;;28.43;;
53267;SDS011;39156;51.176;6.738;2023-05-07T13:54:29;31.08;;;29.48;;
53267;SDS011;39156;51.176;6.738;2023-05-07T13:56:55;30.73;;;29.13;;
53267;SDS011;39156;51.176;6.738;2023-05-07T13:59:20;30.70;;;28.87;;
53267;SDS011;39156;51.176;6.738;2023-05-07T14:01:46;32.47;;;30.67;;
53267;SDS011;39156;51.176;6.738;2023-05-07T14:04:12;30.55;;;28.95;;
53267;SDS011;39156;51.176;6.738;2023-05-07T14:06:37;33.43;;;31.57;;
53267;SDS011;39156;51.176;6.738;2023-05-07T14:09:04;32.80;;;31.10;;
53267;SDS011;39156;51.176;6.738;2023-05-07T14:11:29;31.93;;;28.97;;
53267;SDS011;39156;51.176;6.738;2023-05-07T14:13:55;30.43;;;28.73;;
53267;SDS011;39156;51.176;6.738;2023-05-07T14:16:22;34.15;;;32.35;;
53267;SDS011;39156;51.176;6.738;2023-05-07T14:18:47;31.93;;;30.10;;
53267;SDS011;39156;51.176;6.738;2023-05-07T14:21:13;31.60;;;29.80;;
53267;SDS011;39156;51.176;6.738;2023-05-07T14:23:39;32.73;;;30.93;;
53267;SDS011;39156;51.176;6.738;2023-05-07T14:26:04;32.83;;;31.02;;
53267;SDS011;39156;51.176;6.738;2023-05-07T14:28:30;33.27;;;31.13;;
53267;SDS011;39156;51.176;6.738;2023-05-07T14:30:56;33.65;;;31.63;;
53267;SDS011;39156;51.176;6.738;2023-05-07T14:33:22;33.23;;;31.33;;
53267;SDS011;39156;51.176;6.738;2023-05-07T14:35:47;34.07;;;32.17;;
53267;SDS011;39156;51.176;6.738;2023-05-07T14:38:15;33.03;;;31.20;;
53267;SDS011;39156;51.176;6.738;2023-05-07T14:40:40;33.87;;;31.87;;
53267;SDS011;39156;51.176;6.738;2023-05-07T14:43:06;32.90;;;31.03;;
53267;SDS011;39156;51.176;6.738;2023-05-07T14:45:32;33.27;;;31.47;;
53267;SDS011;39156;51.176;6.738;2023-05-07T14:47:57;34.17;;;32.27;;
53267;SDS011;39156;51.176;6.738;2023-05-07T14:50:23;33.67;;;31.87;;
53267;SDS011;39156;51.176;6.738;2023-05-07T14:52:49;33.83;;;32.00;;
53267;SDS011;39156;51.176;6.738;2023-05-07T14:55:15;33.15;;;31.35;;
53267;SDS011;39156;51.176;6.738;2023-05-07T14:57:40;33.00;;;31.20;;
53267;SDS011;39156;51.176;6.738;2023-05-07T15:00:06;33.20;;;31.30;;